createdAt,value
2023-04-22T00:00:16.086Z,11.84
2023-04-22T00:01:16.088Z,11.90
2023-04-22T00:02:16.109Z,11.97
2023-04-22T00:03:16.302Z,12.03
2023-04-22T00:04:16.269Z,12.00
2023-04-22T00:05:18.574Z,12.06
2023-04-22T00:06:16.040Z,12.13
2023-04-22T00:07:16.009Z,12.20
2023-04-22T00:08:16.008Z,12.20
2023-04-22T00:09:15.980Z,12.20
2023-04-22T00:10:15.983Z,12.10
2023-04-22T00:11:15.994Z,12.12
2023-04-22T00:12:15.957Z,12.10
2023-04-22T00:13:15.950Z,12.00
2023-04-22T00:14:15.942Z,11.88
2023-04-22T00:15:15.923Z,11.80
2023-04-22T00:16:15.983Z,11.75
2023-04-22T00:17:15.902Z,11.68
2023-04-22T00:18:15.908Z,11.68
2023-04-22T00:19:15.902Z,11.72
2023-04-22T00:20:15.877Z,11.66
2023-04-22T00:21:16.419Z,11.69
2023-04-22T00:22:15.874Z,11.70
2023-04-22T00:23:15.873Z,11.60
2023-04-22T00:24:15.830Z,11.50
2023-04-22T00:25:15.820Z,11.44
2023-04-22T00:26:15.855Z,11.51
2023-04-22T00:27:15.803Z,11.68
2023-04-22T00:28:15.792Z,11.91
2023-04-22T00:29:15.782Z,12.06
2023-04-22T00:30:15.797Z,12.21
2023-04-22T00:31:15.845Z,12.39
2023-04-22T00:32:15.751Z,12.46
2023-04-22T00:33:15.746Z,12.50
2023-04-22T00:34:15.725Z,12.60
2023-04-22T00:35:15.731Z,12.61
2023-04-22T00:36:15.730Z,12.62
2023-04-22T00:37:15.689Z,12.65
2023-04-22T00:38:15.685Z,12.68
2023-04-22T00:39:15.743Z,12.72
2023-04-22T00:40:15.683Z,12.79
2023-04-22T00:41:15.677Z,12.82
2023-04-22T00:42:15.641Z,12.82
2023-04-22T00:43:15.631Z,12.72
2023-04-22T00:44:15.629Z,12.57
2023-04-22T00:45:15.618Z,12.46
2023-04-22T00:46:15.642Z,12.35
2023-04-22T00:47:15.738Z,12.25
2023-04-22T00:48:15.582Z,12.13
2023-04-22T00:49:15.572Z,12.09
2023-04-22T00:50:15.598Z,12.12
2023-04-22T00:51:15.580Z,12.12
2023-04-22T00:52:15.538Z,12.13
2023-04-22T00:53:15.522Z,12.07
2023-04-22T00:54:15.523Z,12.02
2023-04-22T00:55:15.493Z,11.95
2023-04-22T00:56:15.520Z,11.87
2023-04-22T00:57:15.489Z,11.80
2023-04-22T00:58:15.468Z,11.69
2023-04-22T00:59:15.461Z,11.59
2023-04-22T01:00:15.480Z,11.47
2023-04-22T01:01:15.474Z,11.35
2023-04-22T01:02:15.464Z,11.26
2023-04-22T01:03:15.511Z,11.15
2023-04-22T01:04:15.531Z,11.07
2023-04-22T01:05:15.388Z,10.94
2023-04-22T01:06:15.418Z,10.84
2023-04-22T01:07:15.369Z,10.74
2023-04-22T01:08:15.369Z,10.64
2023-04-22T01:09:15.358Z,10.54
2023-04-22T01:10:15.357Z,10.48
2023-04-22T01:11:15.359Z,10.31
2023-04-22T01:12:15.341Z,10.20
2023-04-22T01:13:15.316Z,10.07
2023-04-22T01:14:15.309Z,9.91
2023-04-22T01:15:15.291Z,9.87
2023-04-22T01:16:15.389Z,9.72
2023-04-22T01:17:15.281Z,9.55
2023-04-22T01:18:15.268Z,9.43
2023-04-22T01:19:15.263Z,9.37
2023-04-22T01:20:15.251Z,9.29
2023-04-22T01:21:15.245Z,9.22
2023-04-22T01:22:15.242Z,9.04
2023-04-22T01:23:15.223Z,8.99
2023-04-22T01:24:15.207Z,8.89
2023-04-22T01:25:15.187Z,8.81
2023-04-22T01:26:15.500Z,8.70
2023-04-22T01:27:15.172Z,8.63
2023-04-22T01:28:15.165Z,8.55
2023-04-22T01:32:34.587Z,8.74
2023-04-22T01:33:35.571Z,8.73
2023-04-22T01:34:35.577Z,8.71
2023-04-22T01:35:35.591Z,8.51
2023-04-22T01:36:35.545Z,8.38
2023-04-22T01:37:35.528Z,8.20
2023-04-22T01:38:35.519Z,8.09
2023-04-22T01:39:35.521Z,8.03
2023-04-22T01:40:35.525Z,8.00
2023-04-22T01:41:35.501Z,7.97
2023-04-22T01:42:35.476Z,7.85
2023-04-22T01:43:35.462Z,7.77
2023-04-22T01:44:35.449Z,7.63
2023-04-22T01:45:35.510Z,7.53
2023-04-22T01:46:35.800Z,7.45
2023-04-22T01:47:35.469Z,7.50
2023-04-22T01:48:35.424Z,7.48
2023-04-22T01:49:35.427Z,7.54
2023-04-22T01:50:35.388Z,7.63
2023-04-22T01:51:35.428Z,7.70
2023-04-22T01:52:35.359Z,7.67
2023-04-22T01:53:35.354Z,7.69
2023-04-22T01:54:35.337Z,7.75
2023-04-22T01:55:35.350Z,7.76
2023-04-22T01:56:35.358Z,7.76
2023-04-22T01:57:35.316Z,7.77
2023-04-22T01:58:35.314Z,7.77
2023-04-22T01:59:35.290Z,7.75
2023-04-22T02:00:35.270Z,7.75
2023-04-22T02:01:35.355Z,7.77
2023-04-22T02:02:35.340Z,7.94
2023-04-22T02:03:35.307Z,8.37
2023-04-22T02:04:35.255Z,8.37
2023-04-22T02:05:35.234Z,8.36
2023-04-22T02:06:35.232Z,8.37
2023-04-22T02:07:35.205Z,8.33
2023-04-22T02:08:35.232Z,8.30
2023-04-22T02:09:35.188Z,8.30
2023-04-22T02:10:35.176Z,8.27
2023-04-22T02:11:35.209Z,8.33
2023-04-22T02:12:35.150Z,8.34
2023-04-22T02:13:35.142Z,8.31
2023-04-22T02:14:35.141Z,8.31
2023-04-22T02:15:35.154Z,8.24
2023-04-22T02:16:35.119Z,8.18
2023-04-22T02:17:35.100Z,8.16
2023-04-22T02:18:35.103Z,8.16
2023-04-22T02:19:35.118Z,8.13
2023-04-22T02:20:35.084Z,8.09
2023-04-22T02:21:35.072Z,8.06
2023-04-22T02:22:35.047Z,8.05
2023-04-22T02:23:35.031Z,8.03
2023-04-22T02:24:35.020Z,8.00
2023-04-22T02:25:35.016Z,7.97
2023-04-22T02:26:35.019Z,7.97
2023-04-22T02:27:34.988Z,7.94
2023-04-22T02:28:34.990Z,7.82
2023-04-22T02:29:34.966Z,7.70
2023-04-22T02:30:34.949Z,7.57
2023-04-22T02:31:35.048Z,7.45
2023-04-22T02:32:34.955Z,7.38
2023-04-22T02:33:34.937Z,7.35
2023-04-22T02:34:34.910Z,7.31
2023-04-22T02:35:34.906Z,7.33
2023-04-22T02:36:34.906Z,7.43
2023-04-22T02:37:34.880Z,7.54
2023-04-22T02:38:34.866Z,7.69
2023-04-22T02:39:34.868Z,7.75
2023-04-22T02:40:34.845Z,7.85
2023-04-22T02:41:34.861Z,7.90
2023-04-22T02:42:34.929Z,7.94
2023-04-22T02:43:34.828Z,7.94
2023-04-22T02:44:34.817Z,8.00
2023-04-22T02:45:34.794Z,7.98
2023-04-22T02:46:34.857Z,7.82
2023-04-22T02:47:34.801Z,7.69
2023-04-22T02:48:34.762Z,7.58
2023-04-22T02:49:34.758Z,7.50
2023-04-22T02:50:34.733Z,7.45
2023-04-22T02:51:34.753Z,7.42
2023-04-22T02:52:34.731Z,7.43
2023-04-22T02:53:34.709Z,7.47
2023-04-22T02:54:34.705Z,7.54
2023-04-22T02:55:34.714Z,7.54
2023-04-22T02:56:34.709Z,7.54
2023-04-22T02:57:34.675Z,7.53
2023-04-22T02:58:34.654Z,7.51
2023-04-22T02:59:34.650Z,7.53
2023-04-22T03:00:34.695Z,7.53
2023-04-22T03:01:34.710Z,7.58
2023-04-22T03:02:34.721Z,7.58
2023-04-22T03:03:34.705Z,7.56
2023-04-22T03:04:34.617Z,7.60
2023-04-22T03:05:34.596Z,7.61
2023-04-22T03:06:34.578Z,7.66
2023-04-22T03:07:34.590Z,7.67
2023-04-22T03:08:34.552Z,7.63
2023-04-22T03:09:34.531Z,7.67
2023-04-22T03:10:55.533Z,7.69
2023-04-22T03:11:34.536Z,7.72
2023-04-22T03:12:34.506Z,7.76
2023-04-22T03:13:34.498Z,7.79
2023-04-22T03:14:34.557Z,7.83
2023-04-22T03:15:34.466Z,7.90
2023-04-22T03:16:34.517Z,7.98
2023-04-22T03:17:34.490Z,8.00
2023-04-22T03:18:34.440Z,8.01
2023-04-22T03:19:34.420Z,7.98
2023-04-22T03:20:34.446Z,8.00
2023-04-22T03:21:34.441Z,7.98
2023-04-22T03:22:34.410Z,7.94
2023-04-22T03:23:34.386Z,7.94
2023-04-22T03:24:34.398Z,7.90
2023-04-22T03:25:34.418Z,7.83
2023-04-22T03:26:34.317Z,7.82
2023-04-22T03:27:34.369Z,7.82
2023-04-22T03:28:34.360Z,7.77
2023-04-22T03:29:34.316Z,7.76
2023-04-22T03:30:34.323Z,7.73
2023-04-22T03:31:34.367Z,7.77
2023-04-22T03:32:34.344Z,7.83
2023-04-22T03:33:34.232Z,7.90
2023-04-22T03:34:35.826Z,7.91
2023-04-22T03:35:34.209Z,7.91
2023-04-22T03:36:34.214Z,7.88
2023-04-22T03:37:34.235Z,7.93
2023-04-22T03:38:34.247Z,7.88
2023-04-22T03:39:34.211Z,7.87
2023-04-22T03:40:34.212Z,7.82
2023-04-22T03:41:34.287Z,7.80
2023-04-22T03:42:34.186Z,7.77
2023-04-22T03:43:34.164Z,7.79
2023-04-22T03:44:34.154Z,7.76
2023-04-22T03:45:34.156Z,7.76
2023-04-22T03:46:34.306Z,7.73
2023-04-22T03:47:34.134Z,7.75
2023-04-22T03:48:34.124Z,7.75
2023-04-22T03:49:34.060Z,7.77
2023-04-22T03:50:34.046Z,7.80
2023-04-22T03:51:34.055Z,7.85
2023-04-22T03:52:34.032Z,7.87
2023-04-22T03:53:34.002Z,7.88
2023-04-22T03:54:34.013Z,7.90
2023-04-22T03:55:33.982Z,7.93
2023-04-22T03:56:34.010Z,7.94
2023-04-22T03:57:33.975Z,7.97
2023-04-22T03:58:33.958Z,8.00
2023-04-22T03:59:33.946Z,8.00
2023-04-22T04:00:33.950Z,8.00
2023-04-22T04:01:33.933Z,7.98
2023-04-22T04:02:34.032Z,7.98
2023-04-22T04:03:34.327Z,7.98
2023-04-22T04:04:34.277Z,8.00
2023-04-22T04:05:33.909Z,8.03
2023-04-22T04:06:33.909Z,8.01
2023-04-22T04:07:33.850Z,8.03
2023-04-22T04:08:33.854Z,8.03
2023-04-22T04:09:33.830Z,8.06
2023-04-22T04:10:33.839Z,8.09
2023-04-22T04:11:33.853Z,8.13
2023-04-22T04:12:33.826Z,8.18
2023-04-22T04:13:33.794Z,8.16
2023-04-22T04:14:33.776Z,8.18
2023-04-22T04:15:33.880Z,8.18
2023-04-22T04:16:33.916Z,8.18
2023-04-22T04:17:33.782Z,8.18
2023-04-22T04:18:33.802Z,8.18
2023-04-22T04:19:33.729Z,8.19
2023-04-22T04:20:33.721Z,8.16
2023-04-22T04:21:33.741Z,8.13
2023-04-22T04:22:33.714Z,8.15
2023-04-22T04:23:33.694Z,8.16
2023-04-22T04:24:33.669Z,8.16
2023-04-22T04:25:33.681Z,8.18
2023-04-22T04:26:33.688Z,8.20
2023-04-22T04:27:33.648Z,8.23
2023-04-22T04:28:33.635Z,8.23
2023-04-22T04:29:33.621Z,8.26
2023-04-22T04:30:33.687Z,8.27
2023-04-22T04:31:33.686Z,8.31
2023-04-22T04:32:33.600Z,8.33
2023-04-22T04:33:33.576Z,8.34
2023-04-22T04:34:33.559Z,8.34
2023-04-22T04:35:33.554Z,8.33
2023-04-22T04:36:33.563Z,8.30
2023-04-22T04:37:33.535Z,8.33
2023-04-22T04:38:33.514Z,8.31
2023-04-22T04:39:33.524Z,8.27
2023-04-22T04:40:33.501Z,8.12
2023-04-22T04:41:33.527Z,8.01
2023-04-22T04:42:33.474Z,7.95
2023-04-22T04:43:33.480Z,7.90
2023-04-22T04:44:33.466Z,7.82
2023-04-22T04:45:33.446Z,7.76
2023-04-22T04:46:33.504Z,7.75
2023-04-22T04:47:33.438Z,7.73
2023-04-22T04:48:33.413Z,7.72
2023-04-22T04:49:33.398Z,7.69
2023-04-22T04:50:33.384Z,7.75
2023-04-22T04:51:33.407Z,7.75
2023-04-22T04:52:33.369Z,7.75
2023-04-22T04:53:33.365Z,7.76
2023-04-22T04:54:33.346Z,7.77
2023-04-22T04:55:33.379Z,7.82
2023-04-22T04:56:33.340Z,7.95
2023-04-22T04:57:33.312Z,8.05
2023-04-22T04:58:33.325Z,8.12
2023-04-22T04:59:33.293Z,8.24
2023-04-22T05:00:33.281Z,8.28
2023-04-22T05:01:33.435Z,8.31
2023-04-22T05:02:33.365Z,8.33
2023-04-22T05:03:33.395Z,8.45
2023-04-22T05:04:33.596Z,8.51
2023-04-22T05:05:33.227Z,8.67
2023-04-22T05:06:33.236Z,8.89
2023-04-22T05:07:33.272Z,9.00
2023-04-22T05:08:33.198Z,9.10
2023-04-22T05:09:33.221Z,9.18
2023-04-22T05:10:33.188Z,9.23
2023-04-22T05:11:33.193Z,9.32
2023-04-22T05:12:33.154Z,9.41
2023-04-22T05:13:33.194Z,9.51
2023-04-22T05:14:33.146Z,9.64
2023-04-22T05:15:33.129Z,9.69
2023-04-22T05:16:33.172Z,9.77
2023-04-22T05:17:33.123Z,9.89
2023-04-22T05:18:33.098Z,9.89
2023-04-22T05:19:33.102Z,9.94
2023-04-22T05:20:35.881Z,10.01
2023-04-22T05:21:33.101Z,10.09
2023-04-22T05:22:33.049Z,10.13
2023-04-22T05:23:33.065Z,10.22
2023-04-22T05:24:33.029Z,10.31
2023-04-22T05:25:33.031Z,10.40
2023-04-22T05:26:33.023Z,10.61
2023-04-22T05:27:33.027Z,10.64
2023-04-22T05:28:32.983Z,10.82
2023-04-22T05:29:32.988Z,11.11
2023-04-22T05:30:32.963Z,11.37
2023-04-22T05:31:33.007Z,11.65
2023-04-22T05:32:33.052Z,11.84
2023-04-22T05:33:32.940Z,12.00
2023-04-22T05:34:32.921Z,12.17
2023-04-22T05:35:32.983Z,12.73
2023-04-22T05:36:32.904Z,13.09
2023-04-22T05:37:32.906Z,13.18
2023-04-22T05:38:32.885Z,13.56
2023-04-22T05:39:32.928Z,14.04
2023-04-22T05:40:32.856Z,14.32
2023-04-22T05:41:32.854Z,14.04
2023-04-22T05:42:32.947Z,13.54
2023-04-22T05:43:32.835Z,13.08
2023-04-22T05:44:32.814Z,13.01
2023-04-22T05:45:32.884Z,12.95
2023-04-22T05:46:32.848Z,13.13
2023-04-22T05:47:32.826Z,13.27
2023-04-22T05:48:32.832Z,13.60
2023-04-22T05:49:32.770Z,13.72
2023-04-22T05:50:32.752Z,13.79
2023-04-22T05:51:32.797Z,13.57
2023-04-22T05:52:32.749Z,13.33
2023-04-22T05:53:32.724Z,13.19
2023-04-22T05:54:32.763Z,13.18
2023-04-22T05:55:32.718Z,13.49
2023-04-22T05:56:32.680Z,13.78
2023-04-22T05:57:32.798Z,14.11
2023-04-22T05:58:32.661Z,14.36
2023-04-22T05:59:32.660Z,14.65
2023-04-22T06:00:32.674Z,14.84
2023-04-22T06:01:32.639Z,14.58
2023-04-22T06:02:32.753Z,14.58
2023-04-22T06:03:32.854Z,14.79
2023-04-22T06:04:35.384Z,14.54
2023-04-22T06:05:32.630Z,14.47
2023-04-22T06:06:32.651Z,14.65
2023-04-22T06:07:32.769Z,15.11
2023-04-22T06:08:32.561Z,15.09
2023-04-22T06:09:32.572Z,15.10
2023-04-22T06:10:32.533Z,15.22
2023-04-22T06:11:32.529Z,15.29
2023-04-22T06:12:32.530Z,15.49
2023-04-22T06:13:32.528Z,15.61
2023-04-22T06:14:32.496Z,15.55
2023-04-22T06:15:32.529Z,15.49
2023-04-22T06:16:32.495Z,15.67
2023-04-22T06:17:32.508Z,15.83
2023-04-22T06:18:32.462Z,15.73
2023-04-22T06:19:32.463Z,15.83
2023-04-22T06:20:32.426Z,15.92
2023-04-22T06:21:32.417Z,15.98
2023-04-22T06:22:32.435Z,16.15
2023-04-22T06:23:32.403Z,16.23
2023-04-22T06:24:32.389Z,16.31
2023-04-22T06:25:32.412Z,16.32
2023-04-22T06:26:32.365Z,16.31
2023-04-22T06:27:32.374Z,16.32
2023-04-22T06:28:32.347Z,16.29
2023-04-22T06:29:32.347Z,16.31
2023-04-22T06:30:32.307Z,16.10
2023-04-22T06:31:32.402Z,15.94
2023-04-22T06:32:32.316Z,15.97
2023-04-22T06:33:32.304Z,16.05
2023-04-22T06:34:32.315Z,16.05
2023-04-22T06:35:32.268Z,16.21
2023-04-22T06:36:32.248Z,16.46
2023-04-22T06:37:32.342Z,16.71
2023-04-22T06:38:32.230Z,16.83
2023-04-22T06:39:32.236Z,16.64
2023-04-22T06:40:32.209Z,16.42
2023-04-22T06:41:32.206Z,16.49
2023-04-22T06:42:32.216Z,16.64
2023-04-22T06:43:32.183Z,16.91
2023-04-22T06:44:32.165Z,16.96
2023-04-22T06:45:32.162Z,16.91
2023-04-22T06:46:32.167Z,17.09
2023-04-22T06:47:32.227Z,17.06
2023-04-22T06:48:32.133Z,17.04
2023-04-22T06:49:32.118Z,17.01
2023-04-22T06:50:32.135Z,16.96
2023-04-22T06:51:32.103Z,17.04
2023-04-22T06:52:32.138Z,17.04
2023-04-22T06:53:32.078Z,17.12
2023-04-22T06:54:32.082Z,17.14
2023-04-22T06:55:32.085Z,17.24
2023-04-22T06:56:32.047Z,17.27
2023-04-22T06:57:32.057Z,17.20
2023-04-22T06:58:32.006Z,17.02
2023-04-22T06:59:32.017Z,16.84
2023-04-22T07:00:32.009Z,16.81
2023-04-22T07:01:32.023Z,16.76
2023-04-22T07:02:32.026Z,16.90
2023-04-22T07:03:32.163Z,16.86
2023-04-22T07:04:32.001Z,16.81
2023-04-22T07:05:31.958Z,16.84
2023-04-22T07:06:32.001Z,17.14
2023-04-22T07:07:31.944Z,17.24
2023-04-22T07:08:31.921Z,17.78
2023-04-22T07:09:31.974Z,18.59
2023-04-22T07:10:31.884Z,18.96
2023-04-22T07:11:31.894Z,18.93
2023-04-22T07:12:31.908Z,19.04
2023-04-22T07:13:31.858Z,18.86
2023-04-22T07:14:31.849Z,18.78
2023-04-22T07:15:31.887Z,18.71
2023-04-22T07:16:31.908Z,18.75
2023-04-22T07:17:31.867Z,18.98
2023-04-22T07:18:31.828Z,18.92
2023-04-22T07:19:33.269Z,19.19
2023-04-22T07:20:31.788Z,19.64
2023-04-22T07:21:31.811Z,20.21
2023-04-22T07:22:31.777Z,20.93
2023-04-22T07:23:31.749Z,21.89
2023-04-22T07:24:31.789Z,22.35
2023-04-22T07:25:31.727Z,22.62
2023-04-22T07:26:31.740Z,23.12
2023-04-22T07:27:31.815Z,23.25
2023-04-22T07:28:31.706Z,23.78
2023-04-22T07:29:31.696Z,23.65
2023-04-22T07:30:31.724Z,24.05
2023-04-22T07:31:31.670Z,23.41
2023-04-22T07:32:31.750Z,22.98
2023-04-22T07:33:31.640Z,22.99
2023-04-22T07:34:31.638Z,23.23
2023-04-22T07:35:31.641Z,23.71
2023-04-22T07:36:31.615Z,23.36
2023-04-22T07:37:31.669Z,23.41
2023-04-22T07:38:31.585Z,23.62
2023-04-22T07:39:31.581Z,23.91
2023-04-22T07:40:31.605Z,24.05
2023-04-22T07:41:31.562Z,23.91
2023-04-22T07:42:31.615Z,24.40
2023-04-22T07:43:31.550Z,24.92
2023-04-22T07:44:31.528Z,24.51
2023-04-22T07:45:31.564Z,24.57
2023-04-22T07:46:31.546Z,24.81
2023-04-22T07:47:31.533Z,24.39
2023-04-22T07:48:31.477Z,24.16
2023-04-22T07:49:31.501Z,24.85
2023-04-22T07:50:31.463Z,24.54
2023-04-22T07:51:31.458Z,24.78
2023-04-22T07:52:31.467Z,24.73
2023-04-22T07:53:31.444Z,24.58
2023-04-22T07:54:31.459Z,24.33
2023-04-22T07:55:31.412Z,24.61
2023-04-22T07:56:31.413Z,24.70
2023-04-22T07:57:31.425Z,23.92
2023-04-22T07:58:31.394Z,23.62
2023-04-22T07:59:31.402Z,23.73
2023-04-22T08:00:31.413Z,23.93
2023-04-22T08:01:31.355Z,23.55
2023-04-22T08:02:31.499Z,22.93
2023-04-22T08:03:31.539Z,22.57
2023-04-22T08:04:31.514Z,22.70
2023-04-22T08:05:31.328Z,22.36
2023-04-22T08:06:31.305Z,22.55
2023-04-22T08:07:33.505Z,22.55
2023-04-22T08:08:31.309Z,22.84
2023-04-22T08:09:31.290Z,22.30
2023-04-22T08:10:31.281Z,22.04
2023-04-22T08:11:31.258Z,21.82
2023-04-22T08:12:31.286Z,21.95
2023-04-22T08:13:31.238Z,22.44
2023-04-22T08:14:31.258Z,22.70
2023-04-22T08:15:31.217Z,23.03
2023-04-22T08:16:31.192Z,23.41
2023-04-22T08:17:31.264Z,23.84
2023-04-22T08:18:31.187Z,23.99
2023-04-22T08:19:31.172Z,23.66
2023-04-22T08:20:31.154Z,24.24
2023-04-22T08:21:31.159Z,24.53
2023-04-22T08:22:31.161Z,24.96
2023-04-22T08:23:31.136Z,24.45
2023-04-22T08:24:31.121Z,24.17
2023-04-22T08:25:31.110Z,23.68
2023-04-22T08:26:31.096Z,23.88
2023-04-22T08:27:31.096Z,23.65
2023-04-22T08:28:31.076Z,23.40
2023-04-22T08:29:31.065Z,23.31
2023-04-22T08:30:31.057Z,23.13
2023-04-22T08:31:31.083Z,23.25
2023-04-22T08:32:31.095Z,23.28
2023-04-22T08:33:31.067Z,22.75
2023-04-22T08:34:31.017Z,22.62
2023-04-22T08:35:31.010Z,23.03
2023-04-22T08:36:31.020Z,23.37
2023-04-22T08:37:31.011Z,23.73
2023-04-22T08:38:30.973Z,24.26
2023-04-22T08:39:31.000Z,24.20
2023-04-22T08:40:30.956Z,24.05
2023-04-22T08:41:30.950Z,23.68
2023-04-22T08:42:30.993Z,23.50
2023-04-22T08:43:30.927Z,23.43
2023-04-22T08:44:30.902Z,24.02
2023-04-22T08:45:30.935Z,24.42
2023-04-22T08:46:30.932Z,24.21
2023-04-22T08:47:30.902Z,24.42
2023-04-22T08:48:30.892Z,24.74
2023-04-22T08:49:30.853Z,24.85
2023-04-22T08:50:30.854Z,25.46
2023-04-22T08:51:30.850Z,25.83
2023-04-22T08:52:30.859Z,26.15
2023-04-22T08:53:30.826Z,26.13
2023-04-22T08:54:30.810Z,25.87
2023-04-22T08:55:30.796Z,25.38
2023-04-22T08:56:30.797Z,25.11
2023-04-22T08:57:30.805Z,24.53
2023-04-22T08:58:30.774Z,24.05
2023-04-22T08:59:30.752Z,24.68
2023-04-22T09:00:30.747Z,25.65
2023-04-22T09:01:30.792Z,26.19
2023-04-22T09:02:30.790Z,26.44
2023-04-22T09:03:30.773Z,26.70
2023-04-22T09:04:30.762Z,27.70
2023-04-22T09:05:30.707Z,28.35
2023-04-22T09:06:30.696Z,28.33
2023-04-22T09:07:30.734Z,28.07
2023-04-22T09:08:30.811Z,28.14
2023-04-22T09:09:30.700Z,27.22
2023-04-22T09:10:31.881Z,26.36
2023-04-22T09:11:30.646Z,26.02
2023-04-22T09:12:30.661Z,26.95
2023-04-22T09:13:30.615Z,26.73
2023-04-22T09:14:30.599Z,26.03
2023-04-22T09:15:30.647Z,26.00
2023-04-22T09:16:30.627Z,26.02
2023-04-22T09:17:30.680Z,25.65
2023-04-22T09:18:30.590Z,26.71
2023-04-22T09:19:30.537Z,26.60
2023-04-22T09:20:30.582Z,25.90
2023-04-22T09:21:30.519Z,25.55
2023-04-22T09:22:30.543Z,24.91
2023-04-22T09:23:30.499Z,25.62
2023-04-22T09:24:30.498Z,25.95
2023-04-22T09:25:30.486Z,25.63
2023-04-22T09:26:30.470Z,25.58
2023-04-22T09:27:30.607Z,24.98
2023-04-22T09:28:30.451Z,25.23
2023-04-22T09:29:30.476Z,25.70
2023-04-22T09:30:30.469Z,25.53
2023-04-22T09:31:30.524Z,24.98
2023-04-22T09:32:30.472Z,25.11
2023-04-22T09:33:30.432Z,25.36
2023-04-22T09:34:30.414Z,25.91
2023-04-22T09:35:30.431Z,26.21
2023-04-22T09:36:30.428Z,26.26
2023-04-22T09:37:39.292Z,26.99
2023-04-22T09:38:30.352Z,26.77
2023-04-22T09:39:30.326Z,26.31
2023-04-22T09:40:30.319Z,26.19
2023-04-22T09:41:30.372Z,26.16
2023-04-22T09:42:30.319Z,26.29
2023-04-22T09:43:30.289Z,25.96
2023-04-22T09:44:30.300Z,25.35
2023-04-22T09:45:30.266Z,25.18
2023-04-22T09:46:30.297Z,25.11
2023-04-22T09:47:30.307Z,25.01
2023-04-22T09:48:30.272Z,24.89
2023-04-22T09:49:30.223Z,25.10
2023-04-22T09:50:30.231Z,25.14
2023-04-22T09:51:30.212Z,24.99
2023-04-22T09:52:30.220Z,24.38
2023-04-22T09:53:30.177Z,24.26
2023-04-22T09:54:30.276Z,23.88
2023-04-22T09:55:30.169Z,24.24
2023-04-22T09:56:30.211Z,24.54
2023-04-22T09:57:30.200Z,24.55
2023-04-22T09:58:30.143Z,25.11
2023-04-22T09:59:30.164Z,25.53
2023-04-22T10:00:30.129Z,25.54
2023-04-22T10:01:30.184Z,25.31
2023-04-22T10:02:30.301Z,25.31
2023-04-22T10:03:30.100Z,25.46
2023-04-22T10:04:30.238Z,25.99
2023-04-22T10:05:30.060Z,25.59
2023-04-22T10:06:30.055Z,25.87
2023-04-22T10:07:30.118Z,26.34
2023-04-22T10:08:30.021Z,26.88
2023-04-22T10:09:30.059Z,26.59
2023-04-22T10:10:30.027Z,26.52
2023-04-22T10:11:29.997Z,27.08
2023-04-22T10:12:35.797Z,27.22
2023-04-22T10:13:29.976Z,26.70
2023-04-22T10:14:29.980Z,26.88
2023-04-22T10:15:29.959Z,27.68
2023-04-22T10:16:29.985Z,27.95
2023-04-22T10:17:29.977Z,28.17
2023-04-22T10:18:29.955Z,27.59
2023-04-22T10:19:29.915Z,27.54
2023-04-22T10:20:29.906Z,26.88
2023-04-22T10:21:29.907Z,26.18
2023-04-22T10:22:29.935Z,25.43
2023-04-22T10:23:29.876Z,25.77
2023-04-22T10:24:29.878Z,26.44
2023-04-22T10:25:29.854Z,26.45
2023-04-22T10:26:29.884Z,27.11
2023-04-22T10:27:29.878Z,26.92
2023-04-22T10:28:29.828Z,26.71
2023-04-22T10:29:29.799Z,26.62
2023-04-22T10:30:29.923Z,26.38
2023-04-22T10:31:29.894Z,26.70
2023-04-22T10:32:29.808Z,26.44
2023-04-22T10:33:29.756Z,26.02
2023-04-22T10:34:29.765Z,25.73
2023-04-22T10:35:29.861Z,25.75
2023-04-22T10:36:29.743Z,26.51
2023-04-22T10:37:30.816Z,26.75
2023-04-22T10:38:29.719Z,27.14
2023-04-22T10:39:29.696Z,27.59
2023-04-22T10:40:29.706Z,26.63
2023-04-22T10:41:29.756Z,27.03
2023-04-22T10:42:29.696Z,27.17
2023-04-22T10:43:30.248Z,27.44
2023-04-22T10:44:29.656Z,28.02
2023-04-22T10:45:29.674Z,27.74
2023-04-22T10:46:29.687Z,26.52
2023-04-22T10:47:29.698Z,25.60
2023-04-22T10:48:29.615Z,24.66
2023-04-22T10:49:29.596Z,24.92
2023-04-22T10:50:29.720Z,25.80
2023-04-22T10:51:29.620Z,26.10
2023-04-22T10:52:29.615Z,26.02
2023-04-22T10:53:29.576Z,26.52
2023-04-22T10:54:31.962Z,27.08
2023-04-22T10:55:29.573Z,27.07
2023-04-22T10:56:29.530Z,26.90
2023-04-22T10:57:29.526Z,26.80
2023-04-22T10:58:29.555Z,26.75
2023-04-22T10:59:29.525Z,26.83
2023-04-22T11:00:35.315Z,26.83
2023-04-22T11:01:29.508Z,26.43
2023-04-22T11:02:29.549Z,26.09
2023-04-22T11:03:30.159Z,26.33
2023-04-22T11:04:29.463Z,26.09
2023-04-22T11:05:29.436Z,25.43
2023-04-22T11:06:29.469Z,24.60
2023-04-22T11:07:29.437Z,24.63
2023-04-22T11:08:29.416Z,25.17
2023-04-22T11:09:29.459Z,24.95
2023-04-22T11:10:29.380Z,25.13
2023-04-22T11:11:29.376Z,25.48
2023-04-22T11:12:29.393Z,26.18
2023-04-22T11:13:29.348Z,26.21
2023-04-22T11:14:29.347Z,25.46
2023-04-22T11:15:29.320Z,24.69
2023-04-22T11:16:29.388Z,24.21
2023-04-22T11:17:29.389Z,24.99
2023-04-22T11:18:29.304Z,25.48
2023-04-22T11:19:29.322Z,25.58
2023-04-22T11:20:29.296Z,25.22
2023-04-22T11:21:29.277Z,24.78
2023-04-22T11:22:29.322Z,25.04
2023-04-22T11:23:29.255Z,25.29
2023-04-22T11:24:29.237Z,25.10
2023-04-22T11:25:29.244Z,24.45
2023-04-22T11:26:29.221Z,24.54
2023-04-22T11:27:29.255Z,23.88
2023-04-22T11:28:29.190Z,23.34
2023-04-22T11:29:29.270Z,23.46
2023-04-22T11:30:29.183Z,23.80
2023-04-22T11:31:29.254Z,24.20
2023-04-22T11:32:29.277Z,23.66
2023-04-22T11:33:29.157Z,23.58
2023-04-22T11:34:29.123Z,23.23
2023-04-22T11:35:29.171Z,23.00
2023-04-22T11:36:29.115Z,22.93
2023-04-22T11:37:29.245Z,22.72
2023-04-22T11:38:29.168Z,22.57
2023-04-22T11:39:29.079Z,22.59
2023-04-22T11:40:31.609Z,22.80
2023-04-22T11:41:29.050Z,22.91
2023-04-22T11:42:29.093Z,23.05
2023-04-22T11:43:29.044Z,22.87
2023-04-22T11:44:29.028Z,22.94
2023-04-22T11:45:29.045Z,23.10
2023-04-22T11:46:29.157Z,23.27
2023-04-22T11:47:29.022Z,23.28
2023-04-22T11:48:29.001Z,23.48
2023-04-22T11:49:28.984Z,23.54
2023-04-22T11:50:29.045Z,23.36
2023-04-22T11:51:28.955Z,23.48
2023-04-22T11:52:28.965Z,23.37
2023-04-22T11:53:28.921Z,23.36
2023-04-22T11:54:28.940Z,23.43
2023-04-22T11:55:28.926Z,23.48
2023-04-22T11:56:28.915Z,23.69
2023-04-22T11:57:28.900Z,24.06
2023-04-22T11:58:28.872Z,24.21
2023-04-22T11:59:28.860Z,23.99
2023-04-22T12:00:28.853Z,24.11
2023-04-22T12:01:28.864Z,24.45
2023-04-22T12:02:28.902Z,24.95
2023-04-22T12:03:29.200Z,24.78
2023-04-22T12:04:28.798Z,25.07
2023-04-22T12:05:28.837Z,25.08
2023-04-22T12:06:28.782Z,25.13
2023-04-22T12:07:28.789Z,25.03
2023-04-22T12:08:28.773Z,25.28
2023-04-22T12:09:28.748Z,25.62
2023-04-22T12:10:28.759Z,25.72
2023-04-22T12:11:28.733Z,25.99
2023-04-22T12:12:28.759Z,25.96
2023-04-22T12:13:28.730Z,26.00
2023-04-22T12:14:28.712Z,25.99
2023-04-22T12:15:28.707Z,26.15
2023-04-22T12:16:28.713Z,27.26
2023-04-22T12:17:28.709Z,27.68
2023-04-22T12:18:28.658Z,27.80
2023-04-22T12:19:28.634Z,27.68
2023-04-22T12:20:28.660Z,27.92
2023-04-22T12:21:28.676Z,27.86
2023-04-22T12:22:28.631Z,27.89
2023-04-22T12:23:28.603Z,27.95
2023-04-22T12:24:28.588Z,28.08
2023-04-22T12:25:28.574Z,28.04
2023-04-22T12:26:28.704Z,27.77
2023-04-22T12:27:28.567Z,27.73
2023-04-22T12:28:28.562Z,27.35
2023-04-22T12:29:28.631Z,26.78
2023-04-22T12:30:28.534Z,26.71
2023-04-22T12:31:28.629Z,27.29
2023-04-22T12:32:28.599Z,27.29
2023-04-22T12:33:28.556Z,27.36
2023-04-22T12:34:28.495Z,26.95
2023-04-22T12:35:28.475Z,26.47
2023-04-22T12:36:28.468Z,26.03
2023-04-22T12:37:28.515Z,25.22
2023-04-22T12:38:28.524Z,25.31
2023-04-22T12:39:28.435Z,25.36
2023-04-22T12:40:28.571Z,24.38
2023-04-22T12:41:28.428Z,24.66
2023-04-22T12:42:28.406Z,24.05
2023-04-22T12:43:28.437Z,25.13
2023-04-22T12:44:28.381Z,25.75
2023-04-22T12:45:28.444Z,24.77
2023-04-22T12:46:28.441Z,24.21
2023-04-22T12:47:28.415Z,25.22
2023-04-22T12:48:28.364Z,25.93
2023-04-22T12:49:28.337Z,26.52
2023-04-22T12:50:28.357Z,26.58
2023-04-22T12:51:28.316Z,26.85
2023-04-22T12:52:28.328Z,26.97
2023-04-22T12:53:28.336Z,27.14
2023-04-22T12:54:28.275Z,26.41
2023-04-22T12:55:28.316Z,25.90
2023-04-22T12:56:28.287Z,25.85
2023-04-22T12:57:28.257Z,26.25
2023-04-22T12:58:28.255Z,26.71
2023-04-22T12:59:28.275Z,26.75
2023-04-22T13:00:28.213Z,26.60
2023-04-22T13:01:28.264Z,26.37
2023-04-22T13:02:28.273Z,26.31
2023-04-22T13:03:28.350Z,26.23